Time;durP1;ratioP1;P1;durP2;ratioP2;P2;SDS_P1;SDS_P2;PMS_P1;PMS_P2;Temp;Humidity;BMP_temperature;BMP_pressure;BME280_temperature;BME280_humidity;BME280_pressure;Samples;Min_cycle;Max_cycle;Signal;HPM_P1;HPM_P2
2022/11/19 00:00:53;;;;;;;31.80;19.85;;;;;;;;;;5014168;28;20054;-68
2022/11/19 00:03:20;;;;;;;32.88;20.55;;;;;;;;;;5031170;28;20042;-68
2022/11/19 00:05:48;;;;;;;31.73;19.88;;;;;;;;;;5016733;28;20413;-68
2022/11/19 00:08:16;;;;;;;30.85;18.00;;;;;;;;;;5030276;28;20064;-68
2022/11/19 00:10:43;;;;;;;31.63;18.08;;;;;;;;;;5032674;28;20389;-68
2022/11/19 00:13:11;;;;;;;26.67;15.80;;;;;;;;;;5033882;28;20049;-68
2022/11/19 00:15:37;;;;;;;24.85;17.25;;;;;;;;;;5033643;28;20051;-68
2022/11/19 00:18:04;;;;;;;17.50;9.85;;;;;;;;;;5033852;28;20068;-68
2022/11/19 00:20:31;;;;;;;16.58;9.80;;;;;;;;;;5029128;28;20056;-70
2022/11/19 00:22:59;;;;;;;15.37;10.33;;;;;;;;;;5032004;28;20053;-70
2022/11/19 00:25:26;;;;;;;18.60;9.25;;;;;;;;;;5033608;28;20497;-69
2022/11/19 00:27:52;;;;;;;15.63;9.25;;;;;;;;;;5032293;28;20563;-69
2022/11/19 00:30:19;;;;;;;19.60;10.70;;;;;;;;;;5032829;28;20057;-69
2022/11/19 00:33:05;;;;;;;23.80;13.25;;;;;;;;;;5032613;28;20061;-69
2022/11/19 00:35:32;;;;;;;20.17;11.27;;;;;;;;;;5033870;28;20511;-69
2022/11/19 00:37:58;;;;;;;18.10;10.48;;;;;;;;;;5032387;28;20060;-69
2022/11/19 00:40:24;;;;;;;14.70;9.45;;;;;;;;;;5033505;28;20046;-69
2022/11/19 00:45:36;;;;;;;13.40;8.93;;;;;;;;;;5033954;28;20045;-69
2022/11/19 00:48:02;;;;;;;19.27;10.65;;;;;;;;;;5033910;28;20051;-69
2022/11/19 00:50:29;;;;;;;17.88;10.98;;;;;;;;;;5033672;28;20046;-69
2022/11/19 00:52:55;;;;;;;19.52;12.15;;;;;;;;;;5033703;28;20053;-69
2022/11/19 00:55:21;;;;;;;18.98;12.63;;;;;;;;;;5033684;28;20045;-70
2022/11/19 00:57:48;;;;;;;23.33;15.13;;;;;;;;;;5033947;28;20049;-70
2022/11/19 01:00:14;;;;;;;23.38;14.13;;;;;;;;;;5033256;28;20046;-69
2022/11/19 01:02:41;;;;;;;23.27;14.98;;;;;;;;;;5033243;28;20515;-69
2022/11/19 01:05:07;;;;;;;24.90;13.38;;;;;;;;;;5033570;28;20060;-69
2022/11/19 01:07:33;;;;;;;19.40;12.02;;;;;;;;;;5033411;28;20057;-70
2022/11/19 01:10:00;;;;;;;21.60;12.43;;;;;;;;;;5033587;28;20064;-69
2022/11/19 01:12:26;;;;;;;21.15;11.50;;;;;;;;;;5032687;28;20049;-70
2022/11/19 01:14:53;;;;;;;17.23;11.13;;;;;;;;;;5033254;28;20049;-69
2022/11/19 01:17:19;;;;;;;15.98;11.38;;;;;;;;;;5032914;28;20500;-70
2022/11/19 01:19:45;;;;;;;13.55;9.75;;;;;;;;;;5032883;28;20049;-69
2022/11/19 01:22:12;;;;;;;14.63;9.15;;;;;;;;;;5033156;28;20057;-69
2022/11/19 01:24:38;;;;;;;15.13;8.05;;;;;;;;;;5032935;28;20064;-69
2022/11/19 01:27:04;;;;;;;15.68;9.52;;;;;;;;;;5032619;28;20057;-70
2022/11/19 01:29:31;;;;;;;17.50;9.90;;;;;;;;;;5032830;28;20057;-70
2022/11/19 01:31:57;;;;;;;15.57;9.32;;;;;;;;;;5032935;28;20067;-69
2022/11/19 01:34:23;;;;;;;14.35;9.23;;;;;;;;;;5032663;28;20057;-69
2022/11/19 01:36:50;;;;;;;16.98;9.70;;;;;;;;;;5032777;28;20413;-69
2022/11/19 01:39:16;;;;;;;17.38;10.05;;;;;;;;;;5032643;28;20046;-69
2022/11/19 01:41:43;;;;;;;11.57;9.40;;;;;;;;;;5032464;28;20409;-69
2022/11/19 01:44:28;;;;;;;19.50;10.35;;;;;;;;;;5032536;28;20414;-69
2022/11/19 01:46:55;;;;;;;12.73;8.88;;;;;;;;;;5032327;28;20507;-69
2022/11/19 01:49:21;;;;;;;13.90;9.23;;;;;;;;;;5032669;28;20053;-69
2022/11/19 01:51:48;;;;;;;15.55;9.77;;;;;;;;;;5032185;28;20084;-69
2022/11/19 01:54:34;;;;;;;13.55;9.10;;;;;;;;;;5032198;28;20049;-69
2022/11/19 01:57:02;;;;;;;17.55;10.85;;;;;;;;;;5032200;28;20049;-69
2022/11/19 01:59:29;;;;;;;22.63;13.25;;;;;;;;;;5032438;28;20049;-69
2022/11/19 02:01:56;;;;;;;18.30;10.52;;;;;;;;;;5032081;28;20057;-69
2022/11/19 02:04:23;;;;;;;18.63;11.10;;;;;;;;;;5032141;28;20529;-69
2022/11/19 02:06:49;;;;;;;18.00;11.82;;;;;;;;;;5032395;28;20164;-69
2022/11/19 02:09:15;;;;;;;16.08;9.80;;;;;;;;;;5032337;28;20045;-68
2022/11/19 02:12:01;;;;;;;13.43;8.23;;;;;;;;;;5032059;28;20049;-69
2022/11/19 02:14:45;;;;;;;19.08;9.43;;;;;;;;;;5032017;28;20041;-69
2022/11/19 02:17:32;;;;;;;14.85;9.13;;;;;;;;;;5032130;28;20060;-69
2022/11/19 02:19:58;;;;;;;13.32;8.32;;;;;;;;;;5028625;28;20055;-68
2022/11/19 02:22:36;;;;;;;12.30;7.35;;;;;;;;;;5021250;28;20054;-68
2022/11/19 02:25:03;;;;;;;;;;;;;;;;;;5029489;28;20053;-69
2022/11/19 02:27:32;;;;;;;13.15;7.90;;;;;;;;;;5032297;28;19925;-69
2022/11/19 02:29:58;;;;;;;11.77;8.20;;;;;;;;;;5031643;28;20053;-69
2022/11/19 02:32:29;;;;;;;13.52;8.27;;;;;;;;;;5031590;28;20045;-69
2022/11/19 02:34:57;;;;;;;11.52;7.50;;;;;;;;;;5031805;28;20064;-69
2022/11/19 02:37:26;;;;;;;11.23;7.25;;;;;;;;;;5031518;28;20539;-70
2022/11/19 02:40:03;;;;;;;12.70;8.20;;;;;;;;;;5031785;28;20052;-69
2022/11/19 02:42:38;;;;;;;10.60;7.50;;;;;;;;;;5031936;28;20056;-69
2022/11/19 02:45:07;;;;;;;11.05;6.97;;;;;;;;;;5031833;28;20045;-69
2022/11/19 02:47:54;;;;;;;10.70;6.63;;;;;;;;;;5031541;28;20053;-69
2022/11/19 02:50:23;;;;;;;10.85;7.35;;;;;;;;;;5031219;28;20057;-69
2022/11/19 02:52:50;;;;;;;12.60;7.88;;;;;;;;;;5031706;28;20053;-69
2022/11/19 02:55:17;;;;;;;12.18;8.35;;;;;;;;;;5031703;28;20042;-69
2022/11/19 02:57:48;;;;;;;12.77;9.05;;;;;;;;;;5031634;28;20059;-68
2022/11/19 03:05:54;;;;;;;13.45;9.10;;;;;;;;;;5017488;28;20424;-69
2022/11/19 03:08:21;;;;;;;11.90;8.07;;;;;;;;;;5031658;28;20412;-69
2022/11/19 03:10:53;;;;;;;12.75;8.02;;;;;;;;;;5031289;28;20053;-69
2022/11/19 03:19:15;;;;;;;12.75;8.18;;;;;;;;;;5031352;28;20056;-69
2022/11/19 03:21:49;;;;;;;14.05;8.90;;;;;;;;;;5030091;28;20072;-69
2022/11/19 03:24:28;;;;;;;13.60;8.57;;;;;;;;;;5030338;28;20053;-69
2022/11/19 03:26:56;;;;;;;10.48;6.85;;;;;;;;;;5031395;28;20474;-69
2022/11/19 03:29:24;;;;;;;11.50;7.38;;;;;;;;;;5031208;28;20507;-69
2022/11/19 03:31:54;;;;;;;11.88;6.85;;;;;;;;;;5030946;28;20049;-69
2022/11/19 03:34:21;;;;;;;10.13;6.68;;;;;;;;;;5031132;28;20053;-69
2022/11/19 03:36:49;;;;;;;10.77;6.63;;;;;;;;;;5034507;28;20053;-69
2022/11/19 03:39:18;;;;;;;10.35;4.60;;;;;;;;;;5034987;28;20057;-69
2022/11/19 03:41:46;;;;;;;8.00;3.75;;;;;;;;;;5034863;28;20081;-69
2022/11/19 03:44:13;;;;;;;7.75;4.28;;;;;;;;;;5034801;28;20057;-69
2022/11/19 03:46:40;;;;;;;8.60;4.43;;;;;;;;;;5034832;28;20055;-69
2022/11/19 03:49:08;;;;;;;10.40;4.82;;;;;;;;;;5034991;28;20053;-69
2022/11/19 03:51:37;;;;;;;9.15;5.10;;;;;;;;;;5032007;28;20050;-69
2022/11/19 03:54:04;;;;;;;10.23;5.38;;;;;;;;;;5030108;28;20045;-69
2022/11/19 03:56:33;;;;;;;7.18;4.82;;;;;;;;;;5034846;28;20055;-69
2022/11/19 03:59:01;;;;;;;7.22;5.68;;;;;;;;;;5034495;28;20499;-69
2022/11/19 04:01:28;;;;;;;10.00;6.82;;;;;;;;;;5034365;28;20060;-69
2022/11/19 04:06:40;;;;;;;9.25;6.88;;;;;;;;;;5034566;28;20418;-69
2022/11/19 04:09:06;;;;;;;9.23;6.20;;;;;;;;;;5034235;28;20053;-69
2022/11/19 04:11:32;;;;;;;9.30;5.60;;;;;;;;;;5034604;28;20065;-69
2022/11/19 04:13:59;;;;;;;9.70;6.15;;;;;;;;;;5034075;28;20049;-69
2022/11/19 04:16:25;;;;;;;9.38;6.18;;;;;;;;;;5034130;28;20049;-69
2022/11/19 04:18:51;;;;;;;7.65;5.15;;;;;;;;;;5034561;28;20052;-68
2022/11/19 04:21:18;;;;;;;6.82;5.05;;;;;;;;;;5034142;28;20045;-68
2022/11/19 04:23:44;;;;;;;9.10;5.10;;;;;;;;;;5034177;28;20059;-69
2022/11/19 04:26:10;;;;;;;8.93;5.15;;;;;;;;;;5034047;28;20049;-68
2022/11/19 04:28:37;;;;;;;9.15;5.38;;;;;;;;;;5034296;28;20045;-68
2022/11/19 04:31:03;;;;;;;6.75;5.25;;;;;;;;;;5034251;28;20056;-68
2022/11/19 04:33:30;;;;;;;8.45;5.43;;;;;;;;;;5033913;28;20065;-68
2022/11/19 04:35:56;;;;;;;9.90;4.97;;;;;;;;;;5033898;28;20047;-68
2022/11/19 04:38:22;;;;;;;8.27;4.75;;;;;;;;;;5033777;28;20038;-68
2022/11/19 04:40:50;;;;;;;8.45;4.38;;;;;;;;;;5034057;28;20092;-69
2022/11/19 04:43:16;;;;;;;4.90;4.35;;;;;;;;;;5033625;28;20059;-68
2022/11/19 04:45:42;;;;;;;8.73;5.07;;;;;;;;;;5033307;28;20053;-68
2022/11/19 04:48:09;;;;;;;7.82;4.75;;;;;;;;;;5033694;28;20127;-68
2022/11/19 04:50:35;;;;;;;8.15;4.70;;;;;;;;;;5033545;28;20064;-68
2022/11/19 04:53:02;;;;;;;6.15;4.25;;;;;;;;;;5033478;28;20049;-68
2022/11/19 04:55:28;;;;;;;16.05;6.28;;;;;;;;;;5033420;28;20051;-68
2022/11/19 04:57:54;;;;;;;7.90;5.05;;;;;;;;;;5033584;28;20049;-68
2022/11/19 05:00:21;;;;;;;8.02;5.15;;;;;;;;;;5033573;28;20050;-68
2022/11/19 05:02:48;;;;;;;6.75;4.90;;;;;;;;;;5033528;28;20049;-68
2022/11/19 05:05:14;;;;;;;9.07;5.15;;;;;;;;;;5033269;28;20512;-68
2022/11/19 05:07:40;;;;;;;9.45;4.90;;;;;;;;;;5033218;28;20440;-68
2022/11/19 05:10:07;;;;;;;7.18;5.35;;;;;;;;;;5033435;28;20405;-68
2022/11/19 05:12:33;;;;;;;9.13;4.93;;;;;;;;;;5033257;28;20045;-68
2022/11/19 05:15:00;;;;;;;9.50;5.22;;;;;;;;;;5033635;28;20049;-68
2022/11/19 05:17:26;;;;;;;7.38;5.10;;;;;;;;;;5032956;28;20400;-68
2022/11/19 05:19:52;;;;;;;9.80;5.70;;;;;;;;;;5033363;28;20045;-68
2022/11/19 05:22:19;;;;;;;9.90;5.28;;;;;;;;;;5032911;28;20401;-68
2022/11/19 05:24:45;;;;;;;9.55;5.53;;;;;;;;;;5032883;28;20594;-68
2022/11/19 05:27:12;;;;;;;8.00;4.72;;;;;;;;;;5033122;28;20053;-68
2022/11/19 05:29:38;;;;;;;7.05;4.85;;;;;;;;;;5032914;28;20042;-68
2022/11/19 05:32:04;;;;;;;8.27;5.18;;;;;;;;;;5032859;28;20049;-68
2022/11/19 05:34:31;;;;;;;8.73;5.30;;;;;;;;;;5032929;28;20045;-68
2022/11/19 05:36:57;;;;;;;6.88;5.10;;;;;;;;;;5032635;28;20046;-68
2022/11/19 05:39:23;;;;;;;8.02;4.82;;;;;;;;;;5032486;28;20537;-68
2022/11/19 05:41:50;;;;;;;7.28;4.80;;;;;;;;;;5032809;28;20128;-68
2022/11/19 05:44:17;;;;;;;8.57;5.53;;;;;;;;;;5032480;28;20485;-68
2022/11/19 05:46:43;;;;;;;9.55;5.18;;;;;;;;;;5032713;28;20051;-68
2022/11/19 05:49:10;;;;;;;8.63;4.95;;;;;;;;;;5032850;28;20053;-68
2022/11/19 05:51:36;;;;;;;8.90;4.95;;;;;;;;;;5031064;28;20489;-68
2022/11/19 05:54:03;;;;;;;10.85;6.75;;;;;;;;;;5024400;28;20046;-68
2022/11/19 05:56:29;;;;;;;11.50;6.05;;;;;;;;;;5014043;28;20490;-68
2022/11/19 05:58:56;;;;;;;7.43;5.20;;;;;;;;;;5031483;28;20496;-68
2022/11/19 06:01:28;;;;;;;9.82;4.88;;;;;;;;;;5032167;28;20049;-69
2022/11/19 06:03:55;;;;;;;6.55;4.75;;;;;;;;;;5032096;28;20494;-68
2022/11/19 06:06:21;;;;;;;7.40;4.72;;;;;;;;;;5032126;28;20051;-69
2022/11/19 06:08:48;;;;;;;8.85;5.40;;;;;;;;;;5031157;28;20072;-68
2022/11/19 06:12:00;;;;;;;7.88;5.13;;;;;;;;;;5032434;28;20079;-69
2022/11/19 06:14:02;;;;;;;7.40;4.72;;;;;;;;;;5031410;28;20506;-68
2022/11/19 06:16:28;;;;;;;11.68;5.10;;;;;;;;;;5032024;28;20049;-68
2022/11/19 06:18:54;;;;;;;9.00;5.28;;;;;;;;;;5032112;28;20065;-68
2022/11/19 06:21:21;;;;;;;8.55;5.40;;;;;;;;;;5032143;28;20052;-68
2022/11/19 06:23:47;;;;;;;7.63;5.15;;;;;;;;;;5031884;28;20493;-68
2022/11/19 06:26:26;;;;;;;5.97;4.65;;;;;;;;;;5031846;28;20056;-68
2022/11/19 06:28:53;;;;;;;7.72;4.78;;;;;;;;;;5031922;28;20064;-68
2022/11/19 06:31:19;;;;;;;8.63;4.50;;;;;;;;;;5031681;28;20045;-68
2022/11/19 06:33:46;;;;;;;9.73;5.28;;;;;;;;;;5031970;28;20056;-68
2022/11/19 06:36:12;;;;;;;8.20;4.80;;;;;;;;;;5031620;28;20045;-68
2022/11/19 06:38:39;;;;;;;6.63;4.50;;;;;;;;;;5032166;28;20060;-68
2022/11/19 06:41:06;;;;;;;6.55;4.53;;;;;;;;;;5030468;28;20402;-68
2022/11/19 06:43:32;;;;;;;9.32;4.85;;;;;;;;;;5031890;28;20053;-68
2022/11/19 06:45:58;;;;;;;6.70;4.57;;;;;;;;;;5031718;28;20065;-68
2022/11/19 06:48:25;;;;;;;8.18;4.82;;;;;;;;;;5031806;28;20443;-69
2022/11/19 06:50:51;;;;;;;7.90;4.60;;;;;;;;;;5031748;28;20075;-68
2022/11/19 06:53:17;;;;;;;7.95;4.93;;;;;;;;;;5031498;28;20060;-68
2022/11/19 06:55:44;;;;;;;8.02;5.00;;;;;;;;;;5031756;28;20045;-68
2022/11/19 06:58:10;;;;;;;9.02;5.00;;;;;;;;;;5031322;28;20512;-68
2022/11/19 07:00:37;;;;;;;8.40;4.82;;;;;;;;;;5031386;28;20037;-68
2022/11/19 07:03:03;;;;;;;18.38;7.40;;;;;;;;;;5031779;28;20451;-69
2022/11/19 07:05:29;;;;;;;14.85;6.53;;;;;;;;;;5031358;28;20049;-69
2022/11/19 07:07:56;;;;;;;14.68;6.78;;;;;;;;;;5031774;28;20053;-68
2022/11/19 07:10:28;;;;;;;10.98;5.45;;;;;;;;;;5034467;28;20107;-69
2022/11/19 07:12:55;;;;;;;15.07;7.05;;;;;;;;;;5035250;28;20486;-69
2022/11/19 07:15:21;;;;;;;14.57;7.22;;;;;;;;;;5035450;28;20504;-68
2022/11/19 07:17:47;;;;;;;13.02;7.60;;;;;;;;;;5035581;28;20056;-68
2022/11/19 07:20:14;;;;;;;15.88;7.95;;;;;;;;;;5035257;28;20556;-68
2022/11/19 07:22:41;;;;;;;15.38;5.80;;;;;;;;;;5035096;28;20056;-69
2022/11/19 07:25:08;;;;;;;10.20;6.05;;;;;;;;;;5034073;28;20060;-68
2022/11/19 07:27:34;;;;;;;9.65;5.88;;;;;;;;;;5035020;28;20041;-68
2022/11/19 07:30:03;;;;;;;14.88;5.90;;;;;;;;;;5035312;28;20041;-68
2022/11/19 07:32:29;;;;;;;12.40;6.20;;;;;;;;;;5035319;28;20071;-69
2022/11/19 07:34:56;;;;;;;10.23;5.90;;;;;;;;;;5007587;28;20429;-68
2022/11/19 07:37:22;;;;;;;13.77;7.05;;;;;;;;;;5034914;28;20060;-69
2022/11/19 07:39:49;;;;;;;16.63;6.78;;;;;;;;;;5035388;28;20037;-68
2022/11/19 07:45:01;;;;;;;12.30;6.82;;;;;;;;;;5034764;28;20061;-68
2022/11/19 07:47:28;;;;;;;12.77;6.30;;;;;;;;;;5035021;28;20053;-69
2022/11/19 07:49:54;;;;;;;12.27;6.22;;;;;;;;;;5034928;28;20045;-69
2022/11/19 07:52:21;;;;;;;11.52;6.53;;;;;;;;;;5034662;28;20060;-68
2022/11/19 07:54:47;;;;;;;9.75;6.15;;;;;;;;;;5033432;28;20052;-69
2022/11/19 07:57:13;;;;;;;13.25;6.60;;;;;;;;;;5029818;28;20046;-68
2022/11/19 07:59:40;;;;;;;10.77;6.68;;;;;;;;;;5027357;28;20041;-68
2022/11/19 08:02:09;;;;;;;13.98;6.88;;;;;;;;;;5034220;28;20060;-68
2022/11/19 08:04:35;;;;;;;11.73;6.20;;;;;;;;;;5033950;28;20057;-68
2022/11/19 08:07:02;;;;;;;12.70;6.15;;;;;;;;;;5034193;28;20149;-68
2022/11/19 08:09:28;;;;;;;14.55;6.63;;;;;;;;;;5033580;28;20056;-68
2022/11/19 08:11:54;;;;;;;9.95;6.30;;;;;;;;;;5033828;28;20064;-68
2022/11/19 08:14:21;;;;;;;10.18;6.72;;;;;;;;;;5033563;28;20049;-68
2022/11/19 08:19:32;;;;;;;15.10;9.70;;;;;;;;;;5033056;28;20041;-68
2022/11/19 08:21:59;;;;;;;14.70;11.00;;;;;;;;;;5032503;28;20408;-68
2022/11/19 08:24:25;;;;;;;16.55;10.13;;;;;;;;;;5033166;28;20049;-71
2022/11/19 08:26:52;;;;;;;14.07;8.75;;;;;;;;;;5033165;28;20412;-69
2022/11/19 08:29:20;;;;;;;10.98;6.22;;;;;;;;;;5032916;28;20485;-69
2022/11/19 08:31:46;;;;;;;;;;;;;;;;;;5033407;28;20204;-71
2022/11/19 08:34:13;;;;;;;10.32;5.53;;;;;;;;;;5032777;28;20372;-70
2022/11/19 08:36:40;;;;;;;9.02;5.80;;;;;;;;;;5029662;28;20133;-69
2022/11/19 08:39:06;;;;;;;13.23;8.98;;;;;;;;;;5033040;28;20099;-69
2022/11/19 08:44:18;;;;;;;13.13;8.80;;;;;;;;;;5032783;28;20045;-72
2022/11/19 08:46:45;;;;;;;11.85;7.68;;;;;;;;;;5032637;28;20567;-76
2022/11/19 08:49:11;;;;;;;15.43;8.00;;;;;;;;;;5016074;28;20083;-70
2022/11/19 08:51:38;;;;;;;9.27;6.28;;;;;;;;;;5012886;28;20050;-73
2022/11/19 08:54:05;;;;;;;9.43;5.75;;;;;;;;;;5012855;28;20046;-71
2022/11/19 08:56:32;;;;;;;7.45;5.47;;;;;;;;;;5012819;28;20042;-70
2022/11/19 08:58:58;;;;;;;36.97;30.73;;;;;;;;;;5016762;28;20041;-69
2022/11/19 09:01:28;;;;;;;24.38;19.45;;;;;;;;;;5032096;28;20045;-73
2022/11/19 09:03:54;;;;;;;90.57;70.63;;;;;;;;;;5016928;28;20056;-72
2022/11/19 09:06:21;;;;;;;87.97;70.32;;;;;;;;;;5019854;28;20049;-71
2022/11/19 09:08:47;;;;;;;51.22;41.83;;;;;;;;;;5031678;28;20052;-69
2022/11/19 09:11:15;;;;;;;13.02;9.23;;;;;;;;;;5031561;28;20523;-71
2022/11/19 09:13:41;;;;;;;;;;;;;;;;;;5032559;28;20057;-71
2022/11/19 09:16:08;;;;;;;15.45;13.02;;;;;;;;;;5029542;28;19935;-69
2022/11/19 09:18:38;;;;;;;10.20;7.77;;;;;;;;;;5015209;28;20042;-70
2022/11/19 09:21:06;;;;;;;14.57;10.30;;;;;;;;;;5031994;28;20092;-69
2022/11/19 09:23:32;;;;;;;11.65;9.30;;;;;;;;;;5031761;28;20408;-71
2022/11/19 09:26:03;;;;;;;32.75;29.58;;;;;;;;;;5031600;28;20064;-70
2022/11/19 09:28:30;;;;;;;24.08;21.67;;;;;;;;;;5031494;28;20569;-69
2022/11/19 09:30:57;;;;;;;39.33;35.17;;;;;;;;;;5032352;28;20076;-70
2022/11/19 09:33:24;;;;;;;33.00;29.50;;;;;;;;;;5032260;28;20061;-70
2022/11/19 09:35:51;;;;;;;42.50;38.05;;;;;;;;;;5030307;28;20052;-70
2022/11/19 09:38:17;;;;;;;25.00;22.38;;;;;;;;;;5031952;28;20057;-70
2022/11/19 09:40:51;;;;;;;22.23;19.77;;;;;;;;;;5032009;28;20060;-66
2022/11/19 09:43:23;;;;;;;16.42;14.27;;;;;;;;;;5030712;28;20056;-67
2022/11/19 09:46:19;;;;;;;11.00;9.55;;;;;;;;;;5010798;28;20046;-67
2022/11/19 09:48:47;;;;;;;10.45;7.50;;;;;;;;;;5005363;28;20400;-66
2022/11/19 09:51:13;;;;;;;;;;;;;;;;;;5031111;28;20049;-66
2022/11/19 09:53:44;;;;;;;10.55;7.63;;;;;;;;;;5031358;28;19932;-66
2022/11/19 09:56:14;;;;;;;9.75;8.15;;;;;;;;;;5031331;28;20053;-66
2022/11/19 09:58:41;;;;;;;8.10;5.60;;;;;;;;;;5031260;28;20045;-66
2022/11/19 10:01:16;;;;;;;8.35;5.53;;;;;;;;;;5031613;28;20067;-66
2022/11/19 10:03:45;;;;;;;10.73;7.72;;;;;;;;;;5030527;28;20104;-68
2022/11/19 10:06:14;;;;;;;11.02;6.28;;;;;;;;;;5031250;28;20060;-68
2022/11/19 10:08:53;;;;;;;8.32;6.15;;;;;;;;;;5028545;28;20050;-69
2022/11/19 10:11:19;;;;;;;8.35;7.15;;;;;;;;;;5031011;28;20060;-69
2022/11/19 10:13:51;;;;;;;8.65;6.40;;;;;;;;;;5030948;28;20085;-68
2022/11/19 10:16:17;;;;;;;22.95;16.45;;;;;;;;;;5031214;28;20125;-68
2022/11/19 10:18:50;;;;;;;25.50;18.35;;;;;;;;;;5031240;28;20408;-69
2022/11/19 10:21:20;;;;;;;27.70;18.50;;;;;;;;;;5025570;28;20045;-71
2022/11/19 10:23:47;;;;;;;28.65;18.10;;;;;;;;;;5031693;28;20073;-71
2022/11/19 10:26:15;;;;;;;20.30;12.13;;;;;;;;;;5031495;28;20053;-71
2022/11/19 10:28:51;;;;;;;23.55;12.05;;;;;;;;;;5031473;28;20053;-70
2022/11/19 10:31:28;;;;;;;19.33;10.60;;;;;;;;;;5030199;28;20057;-72
2022/11/19 10:34:13;;;;;;;23.60;14.40;;;;;;;;;;5030854;28;20049;-69
2022/11/19 10:36:43;;;;;;;23.75;16.75;;;;;;;;;;5025020;28;20062;-71
2022/11/19 10:39:15;;;;;;;11.60;5.50;;;;;;;;;;5026707;28;20056;-71
2022/11/19 10:41:54;;;;;;;17.10;11.05;;;;;;;;;;5026670;28;20053;-71
2022/11/19 10:44:42;;;;;;;9.25;4.80;;;;;;;;;;5016552;28;20046;-71
2022/11/19 10:47:27;;;;;;;9.98;4.53;;;;;;;;;;5020442;28;20045;-70
2022/11/19 10:49:53;;;;;;;10.40;4.93;;;;;;;;;;5031802;28;20057;-71
2022/11/19 10:52:26;;;;;;;7.75;3.83;;;;;;;;;;5030252;28;20053;-71
2022/11/19 10:54:54;;;;;;;6.40;2.40;;;;;;;;;;5005223;28;20050;-73
2022/11/19 10:57:20;;;;;;;6.97;2.83;;;;;;;;;;4995809;28;20046;-70
2022/11/19 10:59:48;;;;;;;6.23;3.40;;;;;;;;;;4990946;28;20054;-71
2022/11/19 11:02:21;;;;;;;6.10;2.63;;;;;;;;;;4993058;28;20283;-68
2022/11/19 11:05:22;;;;;;;4.90;1.85;;;;;;;;;;4993709;28;20490;-68
2022/11/19 11:07:50;;;;;;;4.40;1.52;;;;;;;;;;4994906;28;20054;-70
2022/11/19 11:10:24;;;;;;;3.60;1.10;;;;;;;;;;4990893;28;20081;-70
2022/11/19 11:15:42;;;;;;;4.78;1.20;;;;;;;;;;4990764;28;20487;-70
2022/11/19 11:18:09;;;;;;;4.15;1.70;;;;;;;;;;4991074;28;20042;-70
2022/11/19 11:20:36;;;;;;;;;;;;;;;;;;4994286;28;20050;-69
2022/11/19 11:23:03;;;;;;;6.65;1.73;;;;;;;;;;4993756;28;19932;-71
2022/11/19 11:25:30;;;;;;;5.50;2.17;;;;;;;;;;5008090;28;20054;-69
2022/11/19 11:28:02;;;;;;;3.33;1.25;;;;;;;;;;5011344;28;20056;-71
2022/11/19 11:30:29;;;;;;;4.10;1.35;;;;;;;;;;5011203;28;20046;-70
2022/11/19 11:32:55;;;;;;;5.25;1.70;;;;;;;;;;5011142;28;20044;-71
2022/11/19 11:35:29;;;;;;;4.57;1.60;;;;;;;;;;5009836;28;20054;-70
2022/11/19 11:37:55;;;;;;;2.70;1.02;;;;;;;;;;5009831;28;20293;-71
2022/11/19 11:40:22;;;;;;;3.28;0.65;;;;;;;;;;5011419;28;20042;-70
2022/11/19 11:42:49;;;;;;;3.28;1.15;;;;;;;;;;5010992;28;20425;-70
2022/11/19 11:45:15;;;;;;;;;;;;;;;;;;5011844;28;20402;-70
2022/11/19 11:47:42;;;;;;;8.82;5.22;;;;;;;;;;5021015;28;19927;-70
2022/11/19 11:50:18;;;;;;;8.73;4.47;;;;;;;;;;5019369;28;20053;-69
2022/11/19 11:52:46;;;;;;;4.97;2.75;;;;;;;;;;5028750;28;20056;-69
2022/11/19 11:55:13;;;;;;;15.05;8.32;;;;;;;;;;5030731;28;20056;-69
2022/11/19 11:57:57;;;;;;;11.88;6.18;;;;;;;;;;5033946;28;20404;-69
2022/11/19 12:00:29;;;;;;;7.03;3.15;;;;;;;;;;5034105;28;20041;-69
2022/11/19 12:03:03;;;;;;;5.97;2.60;;;;;;;;;;5032113;28;20064;-68
2022/11/19 12:05:41;;;;;;;4.97;4.20;;;;;;;;;;5034279;28;20511;-67
2022/11/19 12:08:19;;;;;;;4.70;1.50;;;;;;;;;;5034299;28;20049;-67
2022/11/19 12:10:58;;;;;;;5.00;1.25;;;;;;;;;;5033641;28;20049;-68
2022/11/19 12:13:36;;;;;;;5.07;1.10;;;;;;;;;;5033808;28;20054;-69
2022/11/19 12:16:03;;;;;;;5.20;1.02;;;;;;;;;;5014299;28;20050;-68
2022/11/19 12:18:29;;;;;;;3.05;0.80;;;;;;;;;;5024915;28;20051;-68
2022/11/19 12:21:17;;;;;;;3.78;0.82;;;;;;;;;;5033603;28;20445;-68
2022/11/19 12:23:47;;;;;;;3.63;1.20;;;;;;;;;;5033869;28;20045;-69
2022/11/19 12:26:19;;;;;;;3.20;1.00;;;;;;;;;;5033410;28;20424;-70
2022/11/19 12:28:58;;;;;;;3.65;1.75;;;;;;;;;;5025877;28;20054;-69
2022/11/19 12:31:43;;;;;;;3.10;0.93;;;;;;;;;;5032163;28;20056;-69
2022/11/19 12:34:20;;;;;;;3.50;1.05;;;;;;;;;;5033200;28;20428;-68
2022/11/19 12:36:47;;;;;;;;;;;;;;;;;;5034014;28;20045;-69
2022/11/19 12:39:34;;;;;;;2.90;1.10;;;;;;;;;;5032658;28;19924;-69
2022/11/19 12:42:00;;;;;;;4.97;0.80;;;;;;;;;;5032330;28;20058;-69
2022/11/19 12:44:29;;;;;;;4.32;0.98;;;;;;;;;;5032499;28;20124;-69
2022/11/19 12:47:02;;;;;;;3.05;0.85;;;;;;;;;;5032437;28;20053;-69
2022/11/19 12:49:52;;;;;;;4.15;1.00;;;;;;;;;;5032256;28;20128;-69
2022/11/19 12:52:34;;;;;;;3.53;0.98;;;;;;;;;;5032550;28;20058;-69
2022/11/19 12:55:11;;;;;;;5.28;1.25;;;;;;;;;;5033155;28;20046;-69
2022/11/19 12:57:37;;;;;;;4.53;1.17;;;;;;;;;;5033771;28;20054;-69
2022/11/19 13:00:07;;;;;;;3.75;1.10;;;;;;;;;;5033675;28;20045;-69
2022/11/19 13:02:38;;;;;;;3.88;1.48;;;;;;;;;;5033281;28;20052;-68
2022/11/19 13:05:14;;;;;;;4.00;1.90;;;;;;;;;;5033345;28;20053;-69
2022/11/19 13:07:51;;;;;;;6.32;1.38;;;;;;;;;;5031875;28;20049;-69
2022/11/19 13:10:21;;;;;;;6.20;1.70;;;;;;;;;;5033225;28;20527;-69
2022/11/19 13:12:50;;;;;;;4.53;1.65;;;;;;;;;;5033115;28;20531;-69
2022/11/19 13:15:19;;;;;;;8.00;1.50;;;;;;;;;;5033055;28;20049;-69
2022/11/19 13:17:47;;;;;;;3.67;1.10;;;;;;;;;;5033036;28;20477;-69
2022/11/19 13:20:20;;;;;;;5.25;1.20;;;;;;;;;;5033191;28;20053;-69
2022/11/19 13:22:48;;;;;;;3.00;1.77;;;;;;;;;;5033298;28;20072;-69
2022/11/19 13:25:17;;;;;;;5.55;1.30;;;;;;;;;;5032650;28;20049;-69
2022/11/19 13:27:45;;;;;;;3.80;1.75;;;;;;;;;;5032909;28;20051;-68
2022/11/19 13:30:16;;;;;;;4.45;1.00;;;;;;;;;;5032991;28;20424;-68
2022/11/19 13:33:06;;;;;;;3.97;1.00;;;;;;;;;;5032843;28;20049;-68
2022/11/19 13:35:37;;;;;;;2.90;1.13;;;;;;;;;;5032988;28;20053;-68
2022/11/19 13:38:22;;;;;;;3.90;1.00;;;;;;;;;;5032734;28;20409;-68
2022/11/19 13:40:52;;;;;;;3.88;1.27;;;;;;;;;;5032664;28;20056;-69
2022/11/19 13:46:04;;;;;;;4.90;1.67;;;;;;;;;;5032939;28;20053;-71
2022/11/19 13:48:32;;;;;;;4.72;1.65;;;;;;;;;;5032665;28;20052;-71
2022/11/19 13:51:01;;;;;;;6.22;2.10;;;;;;;;;;5023571;28;20060;-70
2022/11/19 13:53:28;;;;;;;6.28;2.35;;;;;;;;;;5030281;28;20049;-70
2022/11/19 13:55:56;;;;;;;5.30;2.05;;;;;;;;;;5021792;28;20049;-70
2022/11/19 13:58:24;;;;;;;5.53;2.55;;;;;;;;;;5012139;28;20053;-71
2022/11/19 14:01:17;;;;;;;6.50;2.83;;;;;;;;;;5017443;28;20042;-71
2022/11/19 14:03:49;;;;;;;9.32;4.15;;;;;;;;;;5031341;28;20049;-71
2022/11/19 14:06:21;;;;;;;5.95;2.55;;;;;;;;;;5032295;28;20061;-72
2022/11/19 14:08:53;;;;;;;6.28;2.25;;;;;;;;;;5030051;28;20045;-72
2022/11/19 14:11:37;;;;;;;6.82;2.65;;;;;;;;;;5032018;28;20515;-71
2022/11/19 14:28:43;;;;;;;8.80;2.83;;;;;;;;;;5019920;28;20064;-72
2022/11/19 14:31:09;;;;;;;9.35;3.33;;;;;;;;;;5030166;28;20132;-71
2022/11/19 14:33:48;;;;;;;7.82;4.30;;;;;;;;;;5030376;28;20404;-71
2022/11/19 14:36:29;;;;;;;10.20;5.07;;;;;;;;;;5031577;28;20065;-71
2022/11/19 14:38:58;;;;;;;9.32;4.65;;;;;;;;;;5032196;28;20056;-70
2022/11/19 14:41:29;;;;;;;8.98;4.45;;;;;;;;;;5032245;28;20045;-71
2022/11/19 14:44:29;;;;;;;29.27;14.65;;;;;;;;;;5031745;28;20052;-71
2022/11/19 14:47:15;;;;;;;16.60;8.95;;;;;;;;;;5031650;28;20497;-71
2022/11/19 14:49:45;;;;;;;15.23;10.68;;;;;;;;;;5031588;28;20057;-71
2022/11/19 14:52:37;;;;;;;17.25;13.10;;;;;;;;;;5031564;28;20508;-71
2022/11/19 14:55:21;;;;;;;32.05;28.63;;;;;;;;;;5030684;28;20053;-71
2022/11/19 14:58:00;;;;;;;25.88;22.35;;;;;;;;;;5031691;28;20482;-71
2022/11/19 15:00:28;;;;;;;31.58;28.80;;;;;;;;;;5031233;28;20045;-71
2022/11/19 15:02:55;;;;;;;21.55;18.02;;;;;;;;;;5031650;28;20041;-71
2022/11/19 15:05:22;;;;;;;15.35;9.43;;;;;;;;;;5031240;28;20064;-71
2022/11/19 15:07:49;;;;;;;11.80;6.90;;;;;;;;;;5030217;28;20054;-71
2022/11/19 15:10:29;;;;;;;10.07;5.43;;;;;;;;;;5031335;28;20390;-71
2022/11/19 15:13:14;;;;;;;7.63;4.72;;;;;;;;;;5031523;28;20053;-74
2022/11/19 15:15:41;;;;;;;8.70;4.15;;;;;;;;;;5031177;28;20136;-71
2022/11/19 15:18:10;;;;;;;7.20;3.58;;;;;;;;;;5031423;28;20049;-71
2022/11/19 15:20:39;;;;;;;8.68;4.07;;;;;;;;;;5030881;28;20064;-73
2022/11/19 15:23:21;;;;;;;11.48;4.55;;;;;;;;;;5010184;28;20056;-71
2022/11/19 15:25:58;;;;;;;10.85;4.82;;;;;;;;;;5025862;28;20049;-71
2022/11/19 15:28:39;;;;;;;10.60;4.72;;;;;;;;;;5030752;28;20081;-72
2022/11/19 15:31:08;;;;;;;24.08;13.30;;;;;;;;;;5032942;28;20064;-71
2022/11/19 15:33:54;;;;;;;11.98;9.18;;;;;;;;;;5034904;28;20057;-71
2022/11/19 15:36:23;;;;;;;14.48;10.85;;;;;;;;;;5030651;28;20062;-72